createdAt,value
2022-12-08T00:01:21.613Z,7.3
2022-12-08T00:02:21.774Z,7.4
2022-12-08T00:03:21.707Z,7.5
2022-12-08T00:04:21.614Z,7.4
2022-12-08T00:05:21.609Z,7.3
2022-12-08T00:06:21.631Z,7.4
2022-12-08T00:07:21.616Z,7.3
2022-12-08T00:09:21.613Z,7.4
2022-12-08T00:10:47.695Z,7.4
2022-12-08T00:11:21.615Z,7.3
2022-12-08T00:12:21.611Z,7.2
2022-12-08T00:13:21.611Z,7.3
2022-12-08T00:15:21.610Z,7.2
2022-12-08T00:16:21.660Z,7.3
2022-12-08T00:17:21.614Z,7.2
2022-12-08T00:18:21.652Z,7.2
2022-12-08T00:20:21.618Z,7.2
2022-12-08T00:21:21.624Z,7.2
2022-12-08T00:22:15.616Z,7.3
2022-12-08T00:23:21.609Z,7.2
2022-12-08T00:24:21.602Z,7.1
2022-12-08T00:25:21.609Z,7.2
2022-12-08T00:26:21.643Z,7.2
2022-12-08T00:27:21.616Z,7.2
2022-12-08T00:28:21.613Z,7.2
2022-12-08T00:30:21.611Z,7.2
2022-12-08T00:32:21.688Z,7.1
2022-12-08T00:33:21.613Z,7.1
2022-12-08T00:35:21.608Z,7.1
2022-12-08T00:38:21.609Z,7.2
2022-12-08T00:39:21.623Z,7.2
2022-12-08T00:40:21.634Z,7.3
2022-12-08T00:41:21.610Z,7.2
2022-12-08T00:43:21.613Z,7.1
2022-12-08T00:45:21.610Z,7.2
2022-12-08T00:46:21.704Z,7.2
2022-12-08T00:47:24.812Z,7.2
2022-12-08T00:48:21.611Z,7.3
2022-12-08T00:51:21.609Z,7.1
2022-12-08T00:52:21.603Z,7.1
2022-12-08T00:57:21.671Z,7.1
2022-12-08T00:59:21.610Z,7.2
2022-12-08T01:00:21.602Z,7.2
2022-12-08T01:01:21.712Z,7.3
2022-12-08T01:02:21.607Z,7.2
2022-12-08T01:04:21.609Z,7.2
2022-12-08T01:05:21.602Z,7.2
2022-12-08T01:06:21.606Z,7.2
2022-12-08T01:07:21.603Z,7.3
2022-12-08T01:08:21.665Z,7.2
2022-12-08T01:10:21.602Z,7.3
2022-12-08T01:11:21.612Z,7.3
2022-12-08T01:12:21.603Z,7.3
2022-12-08T01:13:21.603Z,7.3
2022-12-08T01:14:21.652Z,7.2
2022-12-08T01:15:21.612Z,7.1
2022-12-08T01:17:21.601Z,7.2
2022-12-08T01:18:21.608Z,7
2022-12-08T01:19:21.628Z,6.9
2022-12-08T01:20:21.604Z,7
2022-12-08T01:22:21.607Z,7
2022-12-08T01:23:21.620Z,7.1
2022-12-08T01:24:21.614Z,7.1
2022-12-08T01:25:21.613Z,7.2
2022-12-08T01:26:21.612Z,7.3
2022-12-08T01:27:21.603Z,7.3
2022-12-08T01:28:21.637Z,7.2
2022-12-08T01:29:21.602Z,7.3
2022-12-08T01:31:21.703Z,7.2
2022-12-08T01:32:21.612Z,7.2
2022-12-08T01:33:21.602Z,7.3
2022-12-08T01:34:21.603Z,7.1
2022-12-08T01:36:21.614Z,7.3
2022-12-08T01:38:21.603Z,7.1
2022-12-08T01:40:21.597Z,7
2022-12-08T01:41:21.608Z,7
2022-12-08T01:42:21.597Z,7
2022-12-08T01:43:21.609Z,7.1
2022-12-08T01:44:21.605Z,7.1
2022-12-08T01:46:21.730Z,7.1
2022-12-08T01:47:21.603Z,7.1
2022-12-08T01:48:21.661Z,7.1
2022-12-08T01:49:21.605Z,7.1
2022-12-08T01:51:21.604Z,6.9
2022-12-08T01:52:21.600Z,7
2022-12-08T01:54:21.612Z,6.9
2022-12-08T01:56:21.595Z,7
2022-12-08T01:58:21.628Z,7.1
2022-12-08T01:59:21.636Z,7.1
2022-12-08T02:01:21.654Z,7.2
2022-12-08T02:03:21.794Z,7.2
2022-12-08T02:04:21.606Z,7.3
2022-12-08T02:05:21.605Z,7.3
2022-12-08T02:07:21.605Z,7.3
2022-12-08T02:09:21.596Z,7.2
2022-12-08T02:10:21.602Z,7.3
2022-12-08T02:12:21.602Z,7.5
2022-12-08T02:13:21.604Z,7.5
2022-12-08T02:14:21.600Z,7.5
2022-12-08T02:15:21.604Z,7.6
2022-12-08T02:17:21.614Z,7.4
2022-12-08T02:18:21.598Z,7.4
2022-12-08T02:20:21.638Z,7.5
2022-12-08T02:21:21.617Z,7.6
2022-12-08T02:22:21.602Z,7.4
2022-12-08T02:23:21.605Z,7.4
2022-12-08T02:24:21.600Z,7.3
2022-12-08T02:25:21.597Z,7.3
2022-12-08T02:26:21.604Z,7.1
2022-12-08T02:29:21.596Z,7.2
2022-12-08T02:30:21.641Z,7.2
2022-12-08T02:31:21.710Z,7.3
2022-12-08T02:33:21.606Z,7.2
2022-12-08T02:34:21.606Z,7.2
2022-12-08T02:36:21.595Z,7.1
2022-12-08T02:37:21.600Z,7.2
2022-12-08T02:38:21.621Z,6.9
2022-12-08T02:41:21.604Z,6.9
2022-12-08T02:42:21.597Z,6.9
2022-12-08T02:43:21.609Z,6.9
2022-12-08T02:45:21.611Z,7.1
2022-12-08T02:46:21.705Z,7.3
2022-12-08T02:47:21.598Z,7.3
2022-12-08T02:49:21.596Z,7.2
2022-12-08T02:50:21.599Z,7.2
2022-12-08T02:52:21.600Z,7.3
2022-12-08T02:53:21.608Z,7.4
2022-12-08T02:55:21.603Z,7.4
2022-12-08T02:56:21.629Z,7.4
2022-12-08T02:58:21.606Z,7.7
2022-12-08T03:01:21.705Z,7.8
2022-12-08T03:02:21.717Z,7.8
2022-12-08T03:13:21.624Z,7.6
2022-12-08T03:18:21.663Z,7.3
2022-12-08T03:21:21.605Z,7.5
2022-12-08T03:23:21.614Z,7.5
2022-12-08T03:26:22.154Z,7.4
2022-12-08T03:27:22.362Z,7.4
2022-12-08T03:29:21.604Z,7.5
2022-12-08T03:30:21.628Z,7.4
2022-12-08T03:31:21.693Z,7.4
2022-12-08T03:32:21.636Z,7.4
2022-12-08T03:37:21.605Z,7.5
2022-12-08T03:42:21.625Z,7.8
2022-12-08T03:45:21.605Z,7.9
2022-12-08T03:47:21.600Z,7.9
2022-12-08T03:49:21.597Z,7.7
2022-12-08T03:50:21.599Z,7.7
2022-12-08T03:51:21.605Z,7.7
2022-12-08T03:52:21.593Z,7.5
2022-12-08T03:53:21.592Z,7.4
2022-12-08T03:55:21.603Z,7.5
2022-12-08T03:56:21.595Z,7.5
2022-12-08T03:58:21.602Z,7.5
2022-12-08T03:59:21.595Z,7.5
2022-12-08T04:00:21.595Z,7.5
2022-12-08T04:03:21.624Z,7.4
2022-12-08T04:04:21.636Z,7.4
2022-12-08T04:06:21.677Z,7.5
2022-12-08T04:07:21.593Z,7.4
2022-12-08T04:08:21.689Z,7.4
2022-12-08T04:09:21.592Z,7.5
2022-12-08T04:11:21.590Z,7.6
2022-12-08T04:12:21.596Z,7.5
2022-12-08T04:13:21.610Z,7.6
2022-12-08T04:14:21.602Z,7.5
2022-12-08T04:16:21.646Z,7.5
2022-12-08T04:17:21.613Z,7.4
2022-12-08T04:19:21.592Z,7.4
2022-12-08T04:20:21.593Z,7.2
2022-12-08T04:21:21.621Z,7.1
2022-12-08T04:23:21.598Z,7.2
2022-12-08T04:24:21.598Z,7.3
2022-12-08T04:25:21.596Z,7.3
2022-12-08T04:26:21.594Z,7.4
2022-12-08T04:27:21.590Z,7.3
2022-12-08T04:28:21.640Z,7.1
2022-12-08T04:29:21.598Z,7.2
2022-12-08T04:30:21.589Z,7.2
2022-12-08T04:31:21.660Z,7.2
2022-12-08T04:32:21.600Z,7.4
2022-12-08T04:33:21.595Z,7.5
2022-12-08T04:34:21.620Z,7.4
2022-12-08T04:35:21.600Z,7.5
2022-12-08T04:36:21.594Z,7.4
2022-12-08T04:37:21.600Z,7.3
2022-12-08T04:38:21.600Z,7.2
2022-12-08T04:40:21.619Z,7.4
2022-12-08T04:41:21.600Z,7.2
2022-12-08T04:44:21.596Z,7.4
2022-12-08T04:45:21.595Z,7.3
2022-12-08T04:46:21.625Z,7.3
2022-12-08T04:47:21.639Z,7.2
2022-12-08T04:48:21.595Z,7.1
2022-12-08T04:49:21.594Z,7.2
2022-12-08T04:52:21.593Z,7.1
2022-12-08T04:53:21.602Z,7.1
2022-12-08T04:54:21.599Z,7.2
2022-12-08T04:55:21.618Z,7.3
2022-12-08T04:57:21.606Z,7.2
2022-12-08T04:58:21.593Z,7.3
2022-12-08T05:00:21.593Z,7.4
2022-12-08T05:02:21.656Z,7.2
2022-12-08T05:03:28.227Z,7.3
2022-12-08T05:05:21.622Z,7.3
2022-12-08T05:06:21.589Z,7.2
2022-12-08T05:07:21.592Z,7.2
2022-12-08T05:10:21.597Z,7.4
2022-12-08T05:12:21.618Z,7.3
2022-12-08T05:13:21.627Z,7.3
2022-12-08T05:14:21.594Z,7.4
2022-12-08T05:15:21.593Z,7.5
2022-12-08T05:17:21.608Z,7.6
2022-12-08T05:18:21.603Z,7.4
2022-12-08T05:19:21.625Z,7.4
2022-12-08T05:20:21.599Z,7.2
2022-12-08T05:21:21.588Z,7
2022-12-08T05:22:21.590Z,7
2022-12-08T05:23:21.594Z,7
2022-12-08T05:24:21.639Z,7.1
2022-12-08T05:25:21.588Z,7.2
2022-12-08T05:26:21.584Z,7.2
2022-12-08T05:27:21.592Z,7.2
2022-12-08T05:28:41.294Z,7.1
2022-12-08T05:29:21.631Z,6.9
2022-12-08T05:30:21.642Z,6.9
2022-12-08T05:31:21.662Z,7
2022-12-08T05:32:21.588Z,6.7
2022-12-08T05:33:21.595Z,6.7
2022-12-08T05:34:21.644Z,6.8
2022-12-08T05:35:21.596Z,6.9
2022-12-08T05:36:21.618Z,6.9
2022-12-08T05:37:21.593Z,6.9
2022-12-08T05:39:21.598Z,6.9
2022-12-08T05:40:21.591Z,7
2022-12-08T05:41:21.604Z,7
2022-12-08T05:42:24.754Z,7.1
2022-12-08T05:44:21.585Z,7.1
2022-12-08T05:45:21.597Z,7.1
2022-12-08T05:47:21.592Z,7.3
2022-12-08T05:49:21.582Z,7.4
2022-12-08T05:50:21.586Z,7.4
2022-12-08T05:52:21.593Z,7.2
2022-12-08T05:53:21.597Z,7.2
2022-12-08T05:54:21.589Z,7
2022-12-08T05:55:21.585Z,7
2022-12-08T05:56:21.596Z,6.8
2022-12-08T05:57:21.598Z,6.8
2022-12-08T05:58:21.596Z,6.7
2022-12-08T06:00:21.588Z,6.7
2022-12-08T06:01:21.675Z,6.7
2022-12-08T06:02:21.750Z,6.7
2022-12-08T06:03:21.702Z,6.6
2022-12-08T06:05:21.602Z,6.8
2022-12-08T06:06:21.596Z,6.8
2022-12-08T06:09:21.591Z,6.9
2022-12-08T06:10:21.592Z,6.9
2022-12-08T06:11:21.592Z,6.9
2022-12-08T06:13:21.586Z,6.9
2022-12-08T06:14:21.591Z,6.9
2022-12-08T06:15:21.592Z,6.9
2022-12-08T06:16:21.660Z,7
2022-12-08T06:17:21.591Z,7.1
2022-12-08T06:18:21.588Z,6.9
2022-12-08T06:19:21.581Z,6.7
2022-12-08T06:21:21.606Z,6.8
2022-12-08T06:23:21.587Z,6.9
2022-12-08T06:24:21.600Z,6.8
2022-12-08T06:26:21.594Z,7
2022-12-08T06:27:21.873Z,7.1
2022-12-08T06:28:21.584Z,7.1
2022-12-08T06:29:21.583Z,7.1
2022-12-08T06:30:21.599Z,6.9
2022-12-08T06:31:21.661Z,6.8
2022-12-08T06:32:27.132Z,6.9
2022-12-08T06:33:21.606Z,6.9
2022-12-08T06:34:21.592Z,6.9
2022-12-08T06:35:21.614Z,7
2022-12-08T06:36:21.586Z,7.1
2022-12-08T06:38:21.602Z,7.3
2022-12-08T06:39:21.589Z,7.3
2022-12-08T06:41:21.595Z,7.2
2022-12-08T06:43:22.116Z,7.1
2022-12-08T06:44:21.587Z,6.9
2022-12-08T06:45:21.589Z,6.8
2022-12-08T06:50:21.588Z,6.7
2022-12-08T06:51:21.586Z,6.8
2022-12-08T06:52:21.580Z,6.7
2022-12-08T06:55:50.710Z,7
2022-12-08T06:57:21.584Z,7.2
2022-12-08T06:58:21.603Z,7.2
2022-12-08T06:59:21.603Z,7.2
2022-12-08T07:00:21.597Z,7.2
2022-12-08T07:02:21.665Z,7.2
2022-12-08T07:04:21.595Z,6.9
2022-12-08T07:05:21.588Z,6.9
2022-12-08T07:07:21.579Z,7
2022-12-08T07:08:21.632Z,7.1
2022-12-08T07:09:21.607Z,7
2022-12-08T07:10:21.587Z,6.9
2022-12-08T07:12:21.585Z,7.1
2022-12-08T07:13:21.583Z,7.1
2022-12-08T07:14:21.588Z,7.1
2022-12-08T07:15:21.583Z,7.2
2022-12-08T07:17:21.579Z,7.1
2022-12-08T07:18:21.601Z,7
2022-12-08T07:19:21.588Z,6.9
2022-12-08T07:20:21.612Z,6.9
2022-12-08T07:22:21.583Z,6.7
2022-12-08T07:24:21.586Z,6.8
2022-12-08T07:25:21.585Z,6.8
2022-12-08T07:27:21.583Z,6.9
2022-12-08T07:28:21.582Z,6.8
2022-12-08T07:29:26.086Z,6.9
2022-12-08T07:30:21.582Z,7
2022-12-08T07:31:21.721Z,6.9
2022-12-08T07:32:21.578Z,7
2022-12-08T07:33:21.596Z,7.1
2022-12-08T07:34:21.591Z,6.9
2022-12-08T07:35:22.953Z,6.9
2022-12-08T07:36:21.588Z,7
2022-12-08T07:37:21.578Z,7
2022-12-08T07:38:21.581Z,7
2022-12-08T07:39:21.584Z,7
2022-12-08T07:40:21.611Z,7.1
2022-12-08T07:41:23.355Z,7.2
2022-12-08T07:42:21.582Z,7.2
2022-12-08T07:44:21.581Z,7.2
2022-12-08T07:46:21.594Z,7.3
2022-12-08T07:47:21.584Z,7.2
2022-12-08T07:48:21.585Z,7.2
2022-12-08T07:49:21.584Z,7.3
2022-12-08T07:50:21.579Z,7.2
2022-12-08T07:51:21.585Z,7.2
2022-12-08T07:52:21.580Z,7.2
2022-12-08T07:54:21.578Z,7.1
2022-12-08T07:55:21.589Z,6.9
2022-12-08T07:56:21.586Z,6.7
2022-12-08T07:57:21.582Z,6.7
2022-12-08T07:59:21.600Z,6.7
2022-12-08T08:00:21.588Z,6.8
2022-12-08T08:02:24.828Z,6.5
2022-12-08T08:04:21.657Z,6.8
2022-12-08T08:05:21.585Z,6.7
2022-12-08T08:08:21.683Z,6.9
2022-12-08T08:09:21.584Z,6.9
2022-12-08T08:11:21.970Z,6.7
2022-12-08T08:13:21.595Z,6.6
2022-12-08T08:14:21.578Z,6.6
2022-12-08T08:16:21.795Z,6.8
2022-12-08T08:17:21.797Z,6.8
2022-12-08T08:18:21.584Z,6.7
2022-12-08T08:19:21.625Z,6.8
2022-12-08T08:20:21.582Z,6.7
2022-12-08T08:21:44.324Z,6.7
2022-12-08T08:22:21.584Z,6.8
2022-12-08T08:24:21.579Z,6.7
2022-12-08T08:25:21.578Z,6.7
2022-12-08T08:26:21.594Z,6.7
2022-12-08T08:27:21.595Z,6.7
2022-12-08T08:28:21.582Z,6.7
2022-12-08T08:29:21.598Z,6.7
2022-12-08T08:30:21.657Z,6.7
2022-12-08T08:31:21.668Z,6.8
2022-12-08T08:32:21.591Z,6.7
2022-12-08T08:33:21.582Z,6.6
2022-12-08T08:34:21.578Z,6.7
2022-12-08T08:35:21.577Z,6.8
2022-12-08T08:36:21.575Z,6.9
2022-12-08T08:37:21.652Z,6.9
2022-12-08T08:38:21.584Z,6.8
2022-12-08T08:39:21.579Z,6.8
2022-12-08T08:40:21.584Z,6.7
2022-12-08T08:41:21.578Z,6.5
2022-12-08T08:43:15.674Z,6.6
2022-12-08T08:45:21.582Z,6.7
2022-12-08T08:46:21.722Z,6.8
2022-12-08T08:48:21.611Z,7.1
2022-12-08T08:50:21.587Z,7.1
2022-12-08T08:51:21.582Z,7.2
2022-12-08T08:52:21.584Z,7.3
2022-12-08T08:53:21.603Z,7.2
2022-12-08T08:54:21.572Z,7.2
2022-12-08T08:55:21.583Z,7.2
2022-12-08T08:56:21.587Z,7.2
2022-12-08T08:58:21.583Z,7.4
2022-12-08T08:59:21.571Z,7.4
2022-12-08T09:00:21.571Z,7.3
2022-12-08T09:01:21.645Z,7.1
2022-12-08T09:04:21.645Z,7.1
2022-12-08T09:06:21.633Z,7.1
2022-12-08T09:07:21.583Z,7
2022-12-08T09:08:21.723Z,7
2022-12-08T09:09:21.576Z,7
2022-12-08T09:11:21.587Z,7
2022-12-08T09:12:21.580Z,7.1
2022-12-08T09:17:21.642Z,7
2022-12-08T09:18:21.586Z,7.1
2022-12-08T09:19:21.576Z,6.9
2022-12-08T09:20:21.575Z,6.9
2022-12-08T09:21:21.580Z,7
2022-12-08T09:22:21.576Z,7
2022-12-08T09:23:22.359Z,7.2
2022-12-08T09:24:21.571Z,7.3
2022-12-08T09:25:21.624Z,7.2
2022-12-08T09:27:21.687Z,7.2
2022-12-08T09:28:21.574Z,6.9
2022-12-08T09:29:21.584Z,6.9
2022-12-08T09:30:21.601Z,6.9
2022-12-08T09:32:21.572Z,6.8
2022-12-08T09:33:21.571Z,6.8
2022-12-08T09:35:21.590Z,6.7
2022-12-08T09:36:21.582Z,6.6
2022-12-08T09:37:21.655Z,6.7
2022-12-08T09:38:21.571Z,6.9
2022-12-08T09:40:21.588Z,7
2022-12-08T09:41:21.572Z,7.1
2022-12-08T09:42:21.573Z,7.1
2022-12-08T09:43:21.579Z,7.1
2022-12-08T09:44:21.601Z,7
2022-12-08T09:45:21.569Z,7.2
2022-12-08T09:48:21.575Z,7.4
2022-12-08T09:49:21.573Z,7.5
2022-12-08T09:50:21.696Z,7.4
2022-12-08T09:53:21.578Z,7.3
2022-12-08T09:55:21.579Z,7.3
2022-12-08T09:56:21.574Z,7.2
2022-12-08T09:57:21.579Z,7
2022-12-08T09:58:21.581Z,7
2022-12-08T09:59:21.577Z,7
2022-12-08T10:00:21.662Z,7.1
2022-12-08T10:01:21.615Z,7.2
2022-12-08T10:03:21.577Z,7.1
2022-12-08T10:04:21.581Z,7.1
2022-12-08T10:05:21.695Z,7.2
2022-12-08T10:06:21.572Z,7.1
2022-12-08T10:09:22.953Z,7.2
2022-12-08T10:11:21.576Z,7.3
2022-12-08T10:13:21.574Z,7.2
2022-12-08T10:16:26.710Z,7.1
2022-12-08T10:17:21.571Z,7.2
2022-12-08T10:18:21.576Z,7.2
2022-12-08T10:20:21.623Z,7.2
2022-12-08T10:21:21.571Z,7
2022-12-08T10:22:21.586Z,6.9
2022-12-08T10:23:21.573Z,6.9
2022-12-08T10:24:21.583Z,6.9
2022-12-08T10:26:21.576Z,6.8
2022-12-08T10:28:21.572Z,6.7
2022-12-08T10:29:21.573Z,6.8
2022-12-08T10:33:21.569Z,7
2022-12-08T10:34:21.572Z,6.8
2022-12-08T10:35:21.572Z,6.8
2022-12-08T10:37:21.570Z,6.7
2022-12-08T10:38:21.571Z,6.7
2022-12-08T10:39:21.575Z,6.6
2022-12-08T10:41:21.568Z,6.6
2022-12-08T10:42:21.568Z,6.6
2022-12-08T10:43:21.572Z,6.7
2022-12-08T10:44:21.585Z,6.6
2022-12-08T10:45:21.575Z,6.8
2022-12-08T10:47:21.572Z,7
2022-12-08T10:48:21.575Z,7.1
2022-12-08T10:49:21.586Z,7.1
2022-12-08T10:50:21.704Z,7.1
2022-12-08T10:51:21.639Z,7.1
2022-12-08T10:52:21.577Z,7.1
2022-12-08T10:54:22.109Z,7.3
2022-12-08T10:55:21.572Z,7.3
2022-12-08T10:56:21.574Z,7.4
2022-12-08T10:57:21.581Z,7.4
2022-12-08T10:58:21.573Z,7.3
2022-12-08T10:59:21.567Z,7.3
2022-12-08T11:00:21.576Z,7.1
2022-12-08T11:01:21.709Z,7.1
2022-12-08T11:02:21.751Z,7.2
2022-12-08T11:03:21.570Z,7.1
2022-12-08T11:04:21.572Z,7.3
2022-12-08T11:05:21.573Z,7.3
2022-12-08T11:06:21.568Z,7.4
2022-12-08T11:07:21.571Z,7.4
2022-12-08T11:08:21.689Z,7.4
2022-12-08T11:10:21.573Z,7.5
2022-12-08T11:11:27.489Z,7.5
2022-12-08T11:12:21.568Z,7.3
2022-12-08T11:13:21.578Z,7.4
2022-12-08T11:14:21.603Z,7.3
2022-12-08T11:16:21.682Z,7.3
2022-12-08T11:17:21.571Z,7.3
2022-12-08T11:19:21.570Z,7.3
2022-12-08T11:21:21.569Z,7.2
2022-12-08T11:22:21.595Z,7.1
2022-12-08T11:23:21.573Z,7.2
2022-12-08T11:24:21.577Z,7.3
2022-12-08T11:27:21.571Z,7.3
2022-12-08T11:29:21.568Z,7.6
2022-12-08T11:30:21.725Z,7.7
2022-12-08T11:32:21.612Z,7.8
2022-12-08T11:33:21.589Z,7.8
2022-12-08T11:35:21.567Z,7.8
2022-12-08T11:36:21.576Z,7.6
2022-12-08T11:38:22.595Z,7.8
2022-12-08T11:39:21.617Z,7.8
2022-12-08T11:40:21.565Z,7.8
2022-12-08T11:41:21.571Z,7.9
2022-12-08T11:42:21.581Z,8
2022-12-08T11:43:21.570Z,8.1
2022-12-08T11:44:21.565Z,8.1
2022-12-08T11:46:21.680Z,8.2
2022-12-08T11:48:21.565Z,8.1
2022-12-08T11:49:21.586Z,8.2
2022-12-08T11:50:21.738Z,8.3
2022-12-08T11:51:21.564Z,8.3
2022-12-08T11:53:21.576Z,8.2
2022-12-08T11:54:21.571Z,8.1
2022-12-08T11:55:21.572Z,8.2
2022-12-08T11:56:21.567Z,8.3
2022-12-08T11:57:21.569Z,8.3
2022-12-08T11:59:21.561Z,8.3
2022-12-08T12:00:21.576Z,8.4
2022-12-08T12:01:21.563Z,8.4
2022-12-08T12:02:21.632Z,8.5
2022-12-08T12:03:21.630Z,8.5
2022-12-08T12:04:21.601Z,8.6
2022-12-08T12:05:33.473Z,8.5
2022-12-08T12:07:26.005Z,8.5
2022-12-08T12:10:21.562Z,8.6
2022-12-08T12:11:21.567Z,8.6
2022-12-08T12:12:21.570Z,8.7
2022-12-08T12:15:21.567Z,9
2022-12-08T12:16:21.685Z,9
2022-12-08T12:18:21.589Z,8.9
2022-12-08T12:20:21.558Z,8.8
2022-12-08T12:21:21.575Z,8.8
2022-12-08T12:22:21.559Z,8.9
2022-12-08T12:23:21.559Z,8.9
2022-12-08T12:24:26.560Z,8.9
2022-12-08T12:25:21.573Z,8.8
2022-12-08T12:26:21.567Z,8.8
2022-12-08T12:27:21.560Z,8.8
2022-12-08T12:28:21.564Z,8.9
2022-12-08T12:29:23.374Z,8.9
2022-12-08T12:30:21.561Z,9
2022-12-08T12:32:21.568Z,9.1
2022-12-08T12:33:21.565Z,9.1
2022-12-08T12:34:21.597Z,9.1
2022-12-08T12:35:27.018Z,9
2022-12-08T12:38:21.570Z,8.8
2022-12-08T12:39:21.576Z,8.6
2022-12-08T12:40:21.587Z,8.5
2022-12-08T12:41:25.370Z,8.4
2022-12-08T12:42:21.583Z,8.4
2022-12-08T12:43:21.560Z,8.3
2022-12-08T12:45:21.565Z,8.4
2022-12-08T12:46:21.712Z,8.4
2022-12-08T12:47:21.571Z,8.3
2022-12-08T12:48:21.561Z,8.3
2022-12-08T12:53:21.564Z,8.6
2022-12-08T12:54:21.564Z,8.5
2022-12-08T12:55:21.565Z,8.2
2022-12-08T12:56:21.567Z,8.2
2022-12-08T12:58:21.564Z,8.4
2022-12-08T13:00:21.566Z,8.3
2022-12-08T13:01:21.752Z,8.4
2022-12-08T13:02:21.700Z,8.4
2022-12-08T13:03:21.563Z,8.5
2022-12-08T13:06:21.711Z,8.7
2022-12-08T13:08:21.680Z,8.7
2022-12-08T13:09:21.602Z,8.7
2022-12-08T13:11:21.568Z,8.6
2022-12-08T13:14:21.563Z,8.3
2022-12-08T13:15:21.567Z,8.3
2022-12-08T13:16:21.719Z,8.1
2022-12-08T13:18:21.591Z,8.1
2022-12-08T13:19:21.570Z,7.9
2022-12-08T13:20:21.561Z,7.9
2022-12-08T13:21:21.647Z,7.9
2022-12-08T13:22:21.874Z,7.9
2022-12-08T13:23:21.560Z,8
2022-12-08T13:25:21.561Z,7.9
2022-12-08T13:27:21.560Z,7.9
2022-12-08T13:28:21.571Z,7.8
2022-12-08T13:30:21.571Z,7.8
2022-12-08T13:32:21.560Z,8.1
2022-12-08T13:34:21.574Z,8.2
2022-12-08T13:35:21.584Z,8.3
2022-12-08T13:36:21.589Z,8.2
2022-12-08T13:37:21.584Z,8.1
2022-12-08T13:38:21.565Z,8
2022-12-08T13:40:21.564Z,8
2022-12-08T13:41:21.567Z,8
2022-12-08T13:42:21.568Z,8
2022-12-08T13:43:21.567Z,8
2022-12-08T13:45:40.083Z,7.9
2022-12-08T13:47:32.721Z,8
2022-12-08T13:48:31.132Z,8.1
2022-12-08T13:57:21.597Z,8.1
2022-12-08T13:58:21.565Z,8.1
2022-12-08T13:59:21.570Z,8
2022-12-08T14:02:21.633Z,8.2
2022-12-08T14:03:21.573Z,8.1
2022-12-08T14:04:42.504Z,8.1
2022-12-08T14:05:40.498Z,8
2022-12-08T14:06:21.568Z,8
2022-12-08T14:07:21.555Z,8
2022-12-08T14:09:21.623Z,8.2
2022-12-08T14:10:21.561Z,8.2
2022-12-08T14:12:21.565Z,8.2
2022-12-08T14:14:45.949Z,8.2
2022-12-08T14:15:21.705Z,8.1
2022-12-08T14:18:21.566Z,8
2022-12-08T14:19:21.566Z,8
2022-12-08T14:20:21.557Z,8
2022-12-08T14:21:22.053Z,8
2022-12-08T14:22:21.567Z,8
2022-12-08T14:23:21.559Z,8.1
2022-12-08T14:25:21.563Z,8.1
2022-12-08T14:26:21.562Z,8.1
2022-12-08T14:27:21.630Z,8.3
2022-12-08T14:35:21.557Z,8.1
2022-12-08T14:36:21.573Z,8.2
2022-12-08T14:38:21.677Z,8.3
2022-12-08T14:39:21.598Z,8.3
2022-12-08T14:41:21.575Z,8.3
2022-12-08T14:42:21.565Z,8.4
2022-12-08T14:43:21.592Z,8.4
2022-12-08T14:44:21.571Z,8.4
2022-12-08T14:45:21.565Z,8.4
2022-12-08T14:46:21.725Z,8.5
2022-12-08T14:47:21.564Z,8.5
2022-12-08T14:49:21.577Z,8.6
2022-12-08T14:50:21.560Z,8.6
2022-12-08T14:51:21.707Z,8.5
2022-12-08T14:52:21.558Z,8.5
2022-12-08T14:53:21.682Z,8.4
2022-12-08T14:54:21.659Z,8.5
2022-12-08T14:55:21.563Z,8.5
2022-12-08T14:56:21.562Z,8.6
2022-12-08T14:57:21.560Z,8.5
2022-12-08T14:58:21.561Z,8.4
2022-12-08T14:59:21.555Z,8.4
2022-12-08T15:01:21.638Z,8.4
2022-12-08T15:02:21.565Z,8.3
2022-12-08T15:03:21.566Z,8.3
2022-12-08T15:04:22.131Z,8.4
2022-12-08T15:05:21.825Z,8.4
2022-12-08T15:06:21.558Z,8.4
2022-12-08T15:07:21.566Z,8.4
2022-12-08T15:09:21.561Z,8.3
2022-12-08T15:11:21.579Z,8.2
2022-12-08T15:13:21.557Z,8.2
2022-12-08T15:14:21.572Z,8.3
2022-12-08T15:16:21.628Z,8.2
2022-12-08T15:18:21.635Z,8.2
2022-12-08T15:19:21.558Z,8.3
2022-12-08T15:21:21.556Z,8.2
2022-12-08T15:22:21.560Z,8.2
2022-12-08T15:23:21.556Z,8.2
2022-12-08T15:24:21.556Z,8.3
2022-12-08T15:26:21.570Z,8.2
2022-12-08T15:27:21.565Z,8.2
2022-12-08T15:28:25.234Z,8.2
2022-12-08T15:31:21.582Z,8.4
2022-12-08T15:32:21.564Z,8.4
2022-12-08T15:34:21.556Z,8.3
2022-12-08T15:35:21.622Z,8.2
2022-12-08T15:36:21.566Z,8.1
2022-12-08T15:37:21.567Z,8.1
2022-12-08T15:39:21.560Z,8.1
2022-12-08T15:40:21.561Z,8.1
2022-12-08T15:41:21.579Z,8.1
2022-12-08T15:42:21.558Z,8.2
2022-12-08T15:43:21.562Z,8.2
2022-12-08T15:44:21.563Z,8.2
2022-12-08T15:45:21.575Z,8.3
2022-12-08T15:47:21.722Z,8.3
2022-12-08T15:48:21.556Z,8.3
2022-12-08T15:50:21.569Z,8.3
2022-12-08T15:52:21.649Z,8.3
2022-12-08T15:53:21.557Z,8.3
2022-12-08T15:55:21.570Z,8.3
2022-12-08T15:56:29.054Z,8.3
2022-12-08T15:57:35.952Z,8.3
2022-12-08T16:01:21.650Z,8.5
2022-12-08T16:02:22.767Z,8.5
2022-12-08T16:03:49.402Z,8.5
2022-12-08T16:05:17.856Z,8.6
2022-12-08T16:05:49.844Z,8.6
2022-12-08T16:07:22.277Z,8.6
2022-12-08T16:08:45.815Z,8.6
2022-12-08T16:09:21.711Z,8.6
2022-12-08T16:10:21.669Z,8.7
2022-12-08T16:11:56.588Z,8.7
2022-12-08T16:12:21.713Z,8.7
2022-12-08T16:15:58.474Z,8.8
2022-12-08T16:16:21.561Z,8.8
2022-12-08T16:17:21.562Z,8.8
2022-12-08T16:18:21.561Z,8.8
2022-12-08T16:19:21.561Z,8.8
2022-12-08T16:20:28.165Z,8.7
2022-12-08T16:24:21.561Z,8.2
2022-12-08T16:25:22.712Z,8.3
2022-12-08T16:27:59.547Z,8.4
2022-12-08T16:30:21.563Z,8.5
2022-12-08T16:31:23.356Z,8.5
2022-12-08T16:32:21.588Z,8.6
2022-12-08T16:35:21.554Z,8.5
2022-12-08T16:36:21.557Z,8.5
2022-12-08T16:37:21.560Z,8.5
2022-12-08T16:40:21.566Z,8.2
2022-12-08T16:41:21.558Z,8.2
2022-12-08T16:42:21.553Z,8.1
2022-12-08T16:44:21.567Z,8
2022-12-08T16:45:21.559Z,8.1
2022-12-08T16:46:21.635Z,8.1
2022-12-08T16:47:21.556Z,8.1
2022-12-08T16:48:21.569Z,8
2022-12-08T16:49:21.561Z,8.1
2022-12-08T16:50:21.569Z,8.1
2022-12-08T16:52:21.559Z,8.3
2022-12-08T16:54:21.553Z,8.4
2022-12-08T16:55:21.555Z,8.4
2022-12-08T16:57:21.554Z,8.4
2022-12-08T16:59:21.558Z,8.5
2022-12-08T17:00:21.598Z,8.5
2022-12-08T17:01:22.218Z,8.5
2022-12-08T17:02:21.556Z,8.4
2022-12-08T17:03:21.576Z,8.4
2022-12-08T17:04:32.178Z,8.4
2022-12-08T17:05:21.680Z,8.2
2022-12-08T17:06:21.557Z,8.1
2022-12-08T17:07:21.642Z,8.2
2022-12-08T17:08:21.608Z,8.1
2022-12-08T17:09:21.567Z,8.2
2022-12-08T17:10:21.556Z,8.2
2022-12-08T17:11:21.567Z,8.2
2022-12-08T17:13:21.562Z,8.4
2022-12-08T17:14:21.587Z,8.4
2022-12-08T17:15:21.566Z,8.4
2022-12-08T17:16:21.626Z,8.4
2022-12-08T17:18:21.554Z,8.4
2022-12-08T17:20:21.559Z,8.4
2022-12-08T17:21:21.560Z,8.4
2022-12-08T17:22:21.571Z,8.4
2022-12-08T17:24:22.072Z,8.4
2022-12-08T17:27:21.563Z,8.5
2022-12-08T17:28:44.004Z,8.5
2022-12-08T17:29:21.555Z,8.5
2022-12-08T17:30:21.562Z,8.5
2022-12-08T17:33:26.582Z,8.5
2022-12-08T17:34:21.557Z,8.5
2022-12-08T17:35:21.567Z,8.5
2022-12-08T17:36:21.561Z,8.5
2022-12-08T17:38:21.555Z,8.5
2022-12-08T17:40:23.608Z,8.5
2022-12-08T17:41:21.554Z,8.5
2022-12-08T17:42:21.557Z,8.5
2022-12-08T17:43:21.556Z,8.5
2022-12-08T17:45:21.582Z,8.6
2022-12-08T17:46:21.639Z,8.5
2022-12-08T17:49:21.616Z,8.4
2022-12-08T17:50:21.554Z,8.4
2022-12-08T17:51:21.554Z,8.3
2022-12-08T17:54:21.871Z,8.2
2022-12-08T17:55:21.559Z,8.2
2022-12-08T17:56:21.594Z,8.3
2022-12-08T17:57:21.558Z,8.2
2022-12-08T17:59:21.574Z,8
2022-12-08T18:00:21.555Z,8.1
2022-12-08T18:01:21.684Z,8.2
2022-12-08T18:02:21.627Z,8.2
2022-12-08T18:03:21.553Z,8.3
2022-12-08T18:04:21.565Z,8.2
2022-12-08T18:06:22.340Z,8.3
2022-12-08T18:07:21.550Z,8.3
2022-12-08T18:08:21.595Z,8.3
2022-12-08T18:09:21.646Z,8.3
2022-12-08T18:11:21.551Z,8.3
2022-12-08T18:12:23.670Z,8.4
2022-12-08T18:15:21.549Z,8.4
2022-12-08T18:16:21.674Z,8.4
2022-12-08T18:17:21.615Z,8.4
2022-12-08T18:19:21.556Z,8.3
2022-12-08T18:20:21.561Z,8.2
2022-12-08T18:21:23.521Z,8.3
2022-12-08T18:24:21.567Z,8.1
2022-12-08T18:25:21.560Z,8.1
2022-12-08T18:27:21.548Z,8.2
2022-12-08T18:28:21.550Z,8.2
2022-12-08T18:29:21.550Z,8.2
2022-12-08T18:30:21.549Z,8.2
2022-12-08T18:32:21.554Z,8.2
2022-12-08T18:33:21.555Z,8.1
2022-12-08T18:35:21.549Z,8.1
2022-12-08T18:36:21.560Z,8.1
2022-12-08T18:37:21.548Z,8.1
2022-12-08T18:38:21.565Z,8.2
2022-12-08T18:40:21.581Z,8.2
2022-12-08T18:41:21.562Z,8.2
2022-12-08T18:42:21.554Z,8.2
2022-12-08T18:43:21.553Z,8.3
2022-12-08T18:44:21.570Z,8.3
2022-12-08T18:46:21.728Z,8.4
2022-12-08T18:48:21.554Z,8.4
2022-12-08T18:49:21.553Z,8.5
2022-12-08T18:50:21.558Z,8.5
2022-12-08T18:51:21.547Z,8.5
2022-12-08T18:52:28.099Z,8.5
2022-12-08T18:55:21.556Z,8.6
2022-12-08T18:57:21.582Z,8.6
2022-12-08T18:59:21.551Z,8.6
2022-12-08T19:00:21.552Z,8.6
2022-12-08T19:02:21.560Z,8.6
2022-12-08T19:03:21.549Z,8.6
2022-12-08T19:05:21.555Z,8.6
2022-12-08T19:07:21.553Z,8.4
2022-12-08T19:08:24.382Z,8.4
2022-12-08T19:09:21.559Z,8.4
2022-12-08T19:12:21.591Z,8.5
2022-12-08T19:13:21.551Z,8.5
2022-12-08T19:16:21.666Z,8.5
2022-12-08T19:17:21.544Z,8.4
2022-12-08T19:20:21.554Z,8.1
2022-12-08T19:21:21.554Z,8.1
2022-12-08T19:22:21.548Z,8
2022-12-08T19:23:21.554Z,8
2022-12-08T19:24:21.626Z,7.9
2022-12-08T19:25:21.556Z,7.9
2022-12-08T19:26:21.551Z,7.8
2022-12-08T19:28:21.550Z,7.7
2022-12-08T19:29:21.566Z,7.6